sensor_id;sensor_type;location;lat;lon;timestamp;temperature;humidity
10300;DHT22;5195;48.562;9.192;2023-03-21T00:02:05;12.90;45.10
10300;DHT22;5195;48.562;9.192;2023-03-21T00:04:31;12.80;45.00
10300;DHT22;5195;48.562;9.192;2023-03-21T00:06:56;13.20;44.80
10300;DHT22;5195;48.562;9.192;2023-03-21T00:09:22;13.50;44.20
10300;DHT22;5195;48.562;9.192;2023-03-21T00:11:49;13.60;44.10
10300;DHT22;5195;48.562;9.192;2023-03-21T00:14:15;13.40;44.10
10300;DHT22;5195;48.562;9.192;2023-03-21T00:16:40;13.40;44.50
10300;DHT22;5195;48.562;9.192;2023-03-21T00:19:06;13.30;44.60
10300;DHT22;5195;48.562;9.192;2023-03-21T00:21:31;13.30;44.60
10300;DHT22;5195;48.562;9.192;2023-03-21T00:23:57;13.50;44.20
10300;DHT22;5195;48.562;9.192;2023-03-21T00:26:22;13.70;44.00
10300;DHT22;5195;48.562;9.192;2023-03-21T00:28:48;13.50;44.00
10300;DHT22;5195;48.562;9.192;2023-03-21T00:31:14;13.20;44.90
10300;DHT22;5195;48.562;9.192;2023-03-21T00:33:40;13.10;44.80
10300;DHT22;5195;48.562;9.192;2023-03-21T00:36:06;13.20;44.40
10300;DHT22;5195;48.562;9.192;2023-03-21T00:38:32;13.20;44.40
10300;DHT22;5195;48.562;9.192;2023-03-21T00:40:57;12.90;44.70
10300;DHT22;5195;48.562;9.192;2023-03-21T00:43:24;12.80;46.40
10300;DHT22;5195;48.562;9.192;2023-03-21T00:45:50;13.10;45.30
10300;DHT22;5195;48.562;9.192;2023-03-21T00:48:16;13.10;45.20
10300;DHT22;5195;48.562;9.192;2023-03-21T00:50:43;13.10;45.40
10300;DHT22;5195;48.562;9.192;2023-03-21T00:53:07;13.10;45.40
10300;DHT22;5195;48.562;9.192;2023-03-21T00:55:34;13.00;45.30
10300;DHT22;5195;48.562;9.192;2023-03-21T00:58:00;12.70;45.60
10300;DHT22;5195;48.562;9.192;2023-03-21T01:00:25;12.90;45.90
10300;DHT22;5195;48.562;9.192;2023-03-21T01:02:51;12.80;45.60
10300;DHT22;5195;48.562;9.192;2023-03-21T01:05:29;12.60;45.80
10300;DHT22;5195;48.562;9.192;2023-03-21T01:07:56;12.40;46.00
10300;DHT22;5195;48.562;9.192;2023-03-21T01:10:22;12.20;46.20
10300;DHT22;5195;48.562;9.192;2023-03-21T01:12:48;12.30;46.60
10300;DHT22;5195;48.562;9.192;2023-03-21T01:15:16;12.60;46.70
10300;DHT22;5195;48.562;9.192;2023-03-21T01:17:41;12.60;46.40
10300;DHT22;5195;48.562;9.192;2023-03-21T01:20:08;13.00;46.00
10300;DHT22;5195;48.562;9.192;2023-03-21T01:22:33;13.20;45.70
10300;DHT22;5195;48.562;9.192;2023-03-21T01:24:59;13.30;45.40
10300;DHT22;5195;48.562;9.192;2023-03-21T01:27:24;13.10;45.40
10300;DHT22;5195;48.562;9.192;2023-03-21T01:29:50;13.10;45.40
10300;DHT22;5195;48.562;9.192;2023-03-21T01:32:16;13.30;45.50
10300;DHT22;5195;48.562;9.192;2023-03-21T01:34:41;13.40;45.40
10300;DHT22;5195;48.562;9.192;2023-03-21T01:37:07;12.80;45.80
10300;DHT22;5195;48.562;9.192;2023-03-21T01:39:33;12.80;45.80
10300;DHT22;5195;48.562;9.192;2023-03-21T01:41:59;12.90;46.40
10300;DHT22;5195;48.562;9.192;2023-03-21T01:44:24;13.10;46.00
10300;DHT22;5195;48.562;9.192;2023-03-21T01:46:50;13.00;45.90
10300;DHT22;5195;48.562;9.192;2023-03-21T01:49:26;13.00;46.20
10300;DHT22;5195;48.562;9.192;2023-03-21T01:51:56;12.90;46.10
10300;DHT22;5195;48.562;9.192;2023-03-21T01:54:20;13.00;46.30
10300;DHT22;5195;48.562;9.192;2023-03-21T01:56:45;12.90;46.20
10300;DHT22;5195;48.562;9.192;2023-03-21T01:59:11;12.70;46.50
10300;DHT22;5195;48.562;9.192;2023-03-21T02:01:36;12.70;46.40
10300;DHT22;5195;48.562;9.192;2023-03-21T02:04:01;12.70;46.30
10300;DHT22;5195;48.562;9.192;2023-03-21T02:06:28;12.50;46.40
10300;DHT22;5195;48.562;9.192;2023-03-21T02:08:52;12.30;46.70
10300;DHT22;5195;48.562;9.192;2023-03-21T02:11:18;12.50;46.80
10300;DHT22;5195;48.562;9.192;2023-03-21T02:13:43;12.50;46.60
10300;DHT22;5195;48.562;9.192;2023-03-21T02:16:18;12.30;46.70
10300;DHT22;5195;48.562;9.192;2023-03-21T02:18:54;12.10;46.90
10300;DHT22;5195;48.562;9.192;2023-03-21T02:26:37;12.00;47.20
10300;DHT22;5195;48.562;9.192;2023-03-21T02:29:28;12.00;47.20
10300;DHT22;5195;48.562;9.192;2023-03-21T02:35:04;11.80;47.50
10300;DHT22;5195;48.562;9.192;2023-03-21T02:37:28;11.60;47.70
10300;DHT22;5195;48.562;9.192;2023-03-21T02:40:14;11.60;47.70
10300;DHT22;5195;48.562;9.192;2023-03-21T02:45:45;11.50;48.60
10300;DHT22;5195;48.562;9.192;2023-03-21T02:48:10;11.50;48.00
10300;DHT22;5195;48.562;9.192;2023-03-21T02:50:42;12.30;48.60
10300;DHT22;5195;48.562;9.192;2023-03-21T02:53:08;12.20;47.80
10300;DHT22;5195;48.562;9.192;2023-03-21T02:55:33;12.70;47.60
10300;DHT22;5195;48.562;9.192;2023-03-21T02:57:59;13.00;46.80
10300;DHT22;5195;48.562;9.192;2023-03-21T03:00:25;12.80;46.50
10300;DHT22;5195;48.562;9.192;2023-03-21T03:02:50;12.60;46.80
10300;DHT22;5195;48.562;9.192;2023-03-21T03:05:26;12.70;46.80
10300;DHT22;5195;48.562;9.192;2023-03-21T03:16:39;12.50;46.60
10300;DHT22;5195;48.562;9.192;2023-03-21T03:19:07;12.30;46.90
10300;DHT22;5195;48.562;9.192;2023-03-21T03:21:31;12.40;47.20
10300;DHT22;5195;48.562;9.192;2023-03-21T03:23:58;12.40;47.10
10300;DHT22;5195;48.562;9.192;2023-03-21T03:28:53;12.40;47.10
10300;DHT22;5195;48.562;9.192;2023-03-21T03:31:20;12.50;47.40
10300;DHT22;5195;48.562;9.192;2023-03-21T03:33:45;12.40;47.20
10300;DHT22;5195;48.562;9.192;2023-03-21T03:36:10;12.50;47.30
10300;DHT22;5195;48.562;9.192;2023-03-21T03:38:35;12.70;47.00
10300;DHT22;5195;48.562;9.192;2023-03-21T03:41:01;12.90;46.70
10300;DHT22;5195;48.562;9.192;2023-03-21T03:43:39;12.70;46.50
10300;DHT22;5195;48.562;9.192;2023-03-21T03:46:15;12.70;47.10
10300;DHT22;5195;48.562;9.192;2023-03-21T03:48:32;12.50;47.10
10300;DHT22;5195;48.562;9.192;2023-03-21T03:51:05;12.20;47.40
10300;DHT22;5195;48.562;9.192;2023-03-21T03:53:32;11.90;47.70
10300;DHT22;5195;48.562;9.192;2023-03-21T03:55:56;11.70;48.00
10300;DHT22;5195;48.562;9.192;2023-03-21T03:58:22;11.50;48.30
10300;DHT22;5195;48.562;9.192;2023-03-21T04:00:47;11.40;48.60
10300;DHT22;5195;48.562;9.192;2023-03-21T04:03:12;11.20;48.70
10300;DHT22;5195;48.562;9.192;2023-03-21T04:05:38;11.10;48.80
10300;DHT22;5195;48.562;9.192;2023-03-21T04:08:03;11.10;49.10
10300;DHT22;5195;48.562;9.192;2023-03-21T04:10:29;11.30;49.80
10300;DHT22;5195;48.562;9.192;2023-03-21T04:12:55;11.80;49.40
10300;DHT22;5195;48.562;9.192;2023-03-21T04:15:20;11.80;48.90
10300;DHT22;5195;48.562;9.192;2023-03-21T04:17:46;11.50;48.90
10300;DHT22;5195;48.562;9.192;2023-03-21T04:20:12;11.30;49.10
10300;DHT22;5195;48.562;9.192;2023-03-21T04:22:37;11.50;49.50
10300;DHT22;5195;48.562;9.192;2023-03-21T04:25:02;11.50;49.20
10300;DHT22;5195;48.562;9.192;2023-03-21T04:27:30;11.60;49.40
10300;DHT22;5195;48.562;9.192;2023-03-21T04:29:55;11.60;49.10
10300;DHT22;5195;48.562;9.192;2023-03-21T04:32:23;12.00;49.40
10300;DHT22;5195;48.562;9.192;2023-03-21T04:34:48;11.90;48.70
10300;DHT22;5195;48.562;9.192;2023-03-21T04:37:17;11.80;48.50
10300;DHT22;5195;48.562;9.192;2023-03-21T04:39:43;11.70;49.20
10300;DHT22;5195;48.562;9.192;2023-03-21T04:42:09;11.70;49.20
10300;DHT22;5195;48.562;9.192;2023-03-21T04:44:34;12.00;48.70
10300;DHT22;5195;48.562;9.192;2023-03-21T04:47:01;12.20;48.10
10300;DHT22;5195;48.562;9.192;2023-03-21T04:49:27;12.00;48.00
10300;DHT22;5195;48.562;9.192;2023-03-21T04:51:54;12.00;48.20
10300;DHT22;5195;48.562;9.192;2023-03-21T04:54:21;11.80;48.20
10300;DHT22;5195;48.562;9.192;2023-03-21T04:56:47;11.70;48.30
10300;DHT22;5195;48.562;9.192;2023-03-21T04:59:13;11.70;48.30
10300;DHT22;5195;48.562;9.192;2023-03-21T05:01:38;11.50;48.70
10300;DHT22;5195;48.562;9.192;2023-03-21T05:04:04;11.50;49.20
10300;DHT22;5195;48.562;9.192;2023-03-21T05:06:29;11.50;49.00
10300;DHT22;5195;48.562;9.192;2023-03-21T05:08:55;11.20;49.00
10300;DHT22;5195;48.562;9.192;2023-03-21T05:11:25;11.30;49.10
10300;DHT22;5195;48.562;9.192;2023-03-21T05:13:50;11.50;48.60
10300;DHT22;5195;48.562;9.192;2023-03-21T05:16:16;11.50;48.60
10300;DHT22;5195;48.562;9.192;2023-03-21T05:18:41;11.50;48.60
10300;DHT22;5195;48.562;9.192;2023-03-21T05:21:07;11.80;48.40
10300;DHT22;5195;48.562;9.192;2023-03-21T05:23:34;11.60;48.30
10300;DHT22;5195;48.562;9.192;2023-03-21T05:25:59;11.70;48.60
10300;DHT22;5195;48.562;9.192;2023-03-21T05:28:25;11.60;48.60
10300;DHT22;5195;48.562;9.192;2023-03-21T05:30:51;11.30;48.90
10300;DHT22;5195;48.562;9.192;2023-03-21T05:33:16;11.40;49.40
10300;DHT22;5195;48.562;9.192;2023-03-21T05:35:42;11.40;49.20
10300;DHT22;5195;48.562;9.192;2023-03-21T05:38:07;11.20;49.30
10300;DHT22;5195;48.562;9.192;2023-03-21T05:40:33;11.10;49.60
10300;DHT22;5195;48.562;9.192;2023-03-21T05:42:58;11.00;49.70
10300;DHT22;5195;48.562;9.192;2023-03-21T05:45:24;11.20;50.20
10300;DHT22;5195;48.562;9.192;2023-03-21T05:47:50;11.30;49.80
10300;DHT22;5195;48.562;9.192;2023-03-21T05:50:15;11.20;49.90
10300;DHT22;5195;48.562;9.192;2023-03-21T05:52:42;11.40;49.70
10300;DHT22;5195;48.562;9.192;2023-03-21T05:55:08;11.40;49.30
10300;DHT22;5195;48.562;9.192;2023-03-21T05:57:35;11.60;49.00
10300;DHT22;5195;48.562;9.192;2023-03-21T06:00:00;11.90;48.40
10300;DHT22;5195;48.562;9.192;2023-03-21T06:02:26;12.20;48.10
10300;DHT22;5195;48.562;9.192;2023-03-21T06:04:52;11.70;48.30
10300;DHT22;5195;48.562;9.192;2023-03-21T06:07:18;11.70;48.30
10300;DHT22;5195;48.562;9.192;2023-03-21T06:09:43;11.50;48.70
10300;DHT22;5195;48.562;9.192;2023-03-21T06:12:11;11.10;49.20
10300;DHT22;5195;48.562;9.192;2023-03-21T06:14:36;11.10;49.20
10300;DHT22;5195;48.562;9.192;2023-03-21T06:17:02;11.00;49.30
10300;DHT22;5195;48.562;9.192;2023-03-21T06:19:30;10.90;49.60
10300;DHT22;5195;48.562;9.192;2023-03-21T06:21:55;10.90;49.90
10300;DHT22;5195;48.562;9.192;2023-03-21T06:24:21;11.00;50.00
10300;DHT22;5195;48.562;9.192;2023-03-21T06:26:47;11.00;50.00
10300;DHT22;5195;48.562;9.192;2023-03-21T06:29:12;11.10;50.00
10300;DHT22;5195;48.562;9.192;2023-03-21T06:31:39;11.10;50.00
10300;DHT22;5195;48.562;9.192;2023-03-21T06:34:05;11.60;50.40
10300;DHT22;5195;48.562;9.192;2023-03-21T06:36:31;11.60;49.70
10300;DHT22;5195;48.562;9.192;2023-03-21T06:38:56;11.90;49.50
10300;DHT22;5195;48.562;9.192;2023-03-21T06:41:22;12.30;48.90
10300;DHT22;5195;48.562;9.192;2023-03-21T06:43:48;12.70;48.30
10300;DHT22;5195;48.562;9.192;2023-03-21T06:46:13;13.00;47.50
10300;DHT22;5195;48.562;9.192;2023-03-21T06:48:40;13.50;46.40
10300;DHT22;5195;48.562;9.192;2023-03-21T06:51:05;13.50;46.40
10300;DHT22;5195;48.562;9.192;2023-03-21T06:53:31;13.40;46.50
10300;DHT22;5195;48.562;9.192;2023-03-21T06:55:56;13.40;46.30
10300;DHT22;5195;48.562;9.192;2023-03-21T06:58:22;13.60;46.00
10300;DHT22;5195;48.562;9.192;2023-03-21T07:00:48;13.80;45.80
10300;DHT22;5195;48.562;9.192;2023-03-21T07:03:14;13.90;45.60
10300;DHT22;5195;48.562;9.192;2023-03-21T07:05:40;13.90;45.70
10300;DHT22;5195;48.562;9.192;2023-03-21T07:08:06;13.90;45.40
10300;DHT22;5195;48.562;9.192;2023-03-21T07:10:31;14.10;45.20
10300;DHT22;5195;48.562;9.192;2023-03-21T07:13:00;14.00;45.40
10300;DHT22;5195;48.562;9.192;2023-03-21T07:15:27;13.80;45.90
10300;DHT22;5195;48.562;9.192;2023-03-21T07:17:52;13.90;45.70
10300;DHT22;5195;48.562;9.192;2023-03-21T07:20:19;13.90;45.80
10300;DHT22;5195;48.562;9.192;2023-03-21T07:22:44;14.10;45.40
10300;DHT22;5195;48.562;9.192;2023-03-21T07:25:10;14.10;45.50
10300;DHT22;5195;48.562;9.192;2023-03-21T07:27:36;14.00;45.80
10300;DHT22;5195;48.562;9.192;2023-03-21T07:30:04;14.00;46.10
10300;DHT22;5195;48.562;9.192;2023-03-21T07:32:27;14.10;46.20
10300;DHT22;5195;48.562;9.192;2023-03-21T07:34:52;14.30;45.60
10300;DHT22;5195;48.562;9.192;2023-03-21T07:37:19;14.50;45.10
10300;DHT22;5195;48.562;9.192;2023-03-21T07:39:46;14.50;45.30
10300;DHT22;5195;48.562;9.192;2023-03-21T07:42:11;14.40;45.20
10300;DHT22;5195;48.562;9.192;2023-03-21T07:44:37;15.00;44.20
10300;DHT22;5195;48.562;9.192;2023-03-21T07:47:04;15.00;44.20
10300;DHT22;5195;48.562;9.192;2023-03-21T07:49:29;15.10;44.10
10300;DHT22;5195;48.562;9.192;2023-03-21T07:51:54;15.30;43.60
10300;DHT22;5195;48.562;9.192;2023-03-21T07:54:20;15.60;42.90
10300;DHT22;5195;48.562;9.192;2023-03-21T07:56:45;15.90;42.40
10300;DHT22;5195;48.562;9.192;2023-03-21T07:59:12;16.00;42.00
10300;DHT22;5195;48.562;9.192;2023-03-21T08:01:37;16.00;41.30
10300;DHT22;5195;48.562;9.192;2023-03-21T08:04:03;16.30;41.60
10300;DHT22;5195;48.562;9.192;2023-03-21T08:06:28;16.40;41.80
10300;DHT22;5195;48.562;9.192;2023-03-21T08:08:55;16.90;40.20
10300;DHT22;5195;48.562;9.192;2023-03-21T08:11:20;16.90;40.10
10300;DHT22;5195;48.562;9.192;2023-03-21T08:13:46;17.20;39.20
10300;DHT22;5195;48.562;9.192;2023-03-21T08:16:11;17.30;39.70
10300;DHT22;5195;48.562;9.192;2023-03-21T08:18:37;17.20;40.40
10300;DHT22;5195;48.562;9.192;2023-03-21T08:21:03;17.10;40.70
10300;DHT22;5195;48.562;9.192;2023-03-21T08:23:28;17.00;40.90
10300;DHT22;5195;48.562;9.192;2023-03-21T08:25:54;17.00;41.00
10300;DHT22;5195;48.562;9.192;2023-03-21T08:28:20;17.30;38.30
10300;DHT22;5195;48.562;9.192;2023-03-21T08:30:45;17.40;38.90
10300;DHT22;5195;48.562;9.192;2023-03-21T08:33:11;17.40;39.20
10300;DHT22;5195;48.562;9.192;2023-03-21T08:35:38;17.60;38.10
10300;DHT22;5195;48.562;9.192;2023-03-21T08:38:05;18.00;37.00
10300;DHT22;5195;48.562;9.192;2023-03-21T08:40:31;18.00;37.00
10300;DHT22;5195;48.562;9.192;2023-03-21T08:42:57;18.10;37.60
10300;DHT22;5195;48.562;9.192;2023-03-21T08:45:22;17.90;37.90
10300;DHT22;5195;48.562;9.192;2023-03-21T08:47:48;18.10;37.20
10300;DHT22;5195;48.562;9.192;2023-03-21T08:50:15;18.20;37.40
10300;DHT22;5195;48.562;9.192;2023-03-21T08:52:40;18.80;35.80
10300;DHT22;5195;48.562;9.192;2023-03-21T08:55:07;18.80;35.80
10300;DHT22;5195;48.562;9.192;2023-03-21T08:57:32;18.90;36.20
10300;DHT22;5195;48.562;9.192;2023-03-21T08:59:58;18.80;36.60
10300;DHT22;5195;48.562;9.192;2023-03-21T09:02:24;18.70;37.20
10300;DHT22;5195;48.562;9.192;2023-03-21T09:04:50;18.70;37.20
10300;DHT22;5195;48.562;9.192;2023-03-21T09:07:15;19.00;34.90
10300;DHT22;5195;48.562;9.192;2023-03-21T09:09:41;19.40;33.80
10300;DHT22;5195;48.562;9.192;2023-03-21T09:12:07;19.50;34.70
10300;DHT22;5195;48.562;9.192;2023-03-21T09:14:33;19.70;34.70
10300;DHT22;5195;48.562;9.192;2023-03-21T09:16:59;20.00;34.00
10300;DHT22;5195;48.562;9.192;2023-03-21T09:19:24;20.00;34.10
10300;DHT22;5195;48.562;9.192;2023-03-21T09:21:51;20.00;33.40
10300;DHT22;5195;48.562;9.192;2023-03-21T09:24:16;20.00;34.00
10300;DHT22;5195;48.562;9.192;2023-03-21T09:26:42;20.00;33.00
10300;DHT22;5195;48.562;9.192;2023-03-21T09:29:08;20.20;31.90
10300;DHT22;5195;48.562;9.192;2023-03-21T09:31:33;20.20;32.80
10300;DHT22;5195;48.562;9.192;2023-03-21T09:33:59;19.90;33.30
10300;DHT22;5195;48.562;9.192;2023-03-21T09:36:25;19.90;32.80
10300;DHT22;5195;48.562;9.192;2023-03-21T09:38:50;20.20;32.40
10300;DHT22;5195;48.562;9.192;2023-03-21T09:47:17;20.30;33.20
10300;DHT22;5195;48.562;9.192;2023-03-21T09:49:43;20.20;33.80
10300;DHT22;5195;48.562;9.192;2023-03-21T09:52:12;20.60;33.80
10300;DHT22;5195;48.562;9.192;2023-03-21T09:54:37;20.50;33.20
10300;DHT22;5195;48.562;9.192;2023-03-21T09:57:20;20.50;33.10
10300;DHT22;5195;48.562;9.192;2023-03-21T09:59:41;20.60;31.90
10300;DHT22;5195;48.562;9.192;2023-03-21T10:04:45;20.80;31.60
10300;DHT22;5195;48.562;9.192;2023-03-21T10:07:10;21.20;30.90
10300;DHT22;5195;48.562;9.192;2023-03-21T10:09:38;21.10;31.50
10300;DHT22;5195;48.562;9.192;2023-03-21T10:12:11;21.20;30.80
10300;DHT22;5195;48.562;9.192;2023-03-21T10:14:39;21.30;31.70
10300;DHT22;5195;48.562;9.192;2023-03-21T10:17:33;21.40;30.90
10300;DHT22;5195;48.562;9.192;2023-03-21T10:20:19;21.30;31.40
10300;DHT22;5195;48.562;9.192;2023-03-21T10:22:40;21.00;32.10
10300;DHT22;5195;48.562;9.192;2023-03-21T10:25:06;21.10;31.90
10300;DHT22;5195;48.562;9.192;2023-03-21T10:27:31;21.40;31.60
10300;DHT22;5195;48.562;9.192;2023-03-21T10:29:57;21.40;32.00
10300;DHT22;5195;48.562;9.192;2023-03-21T10:32:22;21.50;30.70
10300;DHT22;5195;48.562;9.192;2023-03-21T10:34:50;21.70;31.00
10300;DHT22;5195;48.562;9.192;2023-03-21T10:37:13;21.50;31.30
10300;DHT22;5195;48.562;9.192;2023-03-21T10:39:42;21.30;31.70
10300;DHT22;5195;48.562;9.192;2023-03-21T10:42:18;21.10;32.20
10300;DHT22;5195;48.562;9.192;2023-03-21T10:44:42;21.20;31.30
10300;DHT22;5195;48.562;9.192;2023-03-21T10:47:09;21.40;31.30
10300;DHT22;5195;48.562;9.192;2023-03-21T10:49:35;21.40;31.30
10300;DHT22;5195;48.562;9.192;2023-03-21T10:52:02;21.30;31.40
10300;DHT22;5195;48.562;9.192;2023-03-21T10:54:28;21.30;32.50
10300;DHT22;5195;48.562;9.192;2023-03-21T10:56:57;21.30;31.90
10300;DHT22;5195;48.562;9.192;2023-03-21T10:59:22;21.50;31.70
10300;DHT22;5195;48.562;9.192;2023-03-21T11:01:49;21.20;31.70
10300;DHT22;5195;48.562;9.192;2023-03-21T11:06:44;20.70;32.20
10300;DHT22;5195;48.562;9.192;2023-03-21T11:09:13;20.70;32.20
10300;DHT22;5195;48.562;9.192;2023-03-21T11:11:39;20.40;32.70
10300;DHT22;5195;48.562;9.192;2023-03-21T11:14:05;20.40;32.70
10300;DHT22;5195;48.562;9.192;2023-03-21T11:16:31;20.30;33.00
10300;DHT22;5195;48.562;9.192;2023-03-21T11:18:58;20.50;33.00
10300;DHT22;5195;48.562;9.192;2023-03-21T11:21:21;20.90;31.60
10300;DHT22;5195;48.562;9.192;2023-03-21T11:23:47;20.90;31.90
10300;DHT22;5195;48.562;9.192;2023-03-21T11:26:16;20.80;32.50
10300;DHT22;5195;48.562;9.192;2023-03-21T11:28:40;20.70;32.90
10300;DHT22;5195;48.562;9.192;2023-03-21T11:31:06;20.60;33.00
10300;DHT22;5195;48.562;9.192;2023-03-21T11:33:34;21.00;32.80
10300;DHT22;5195;48.562;9.192;2023-03-21T11:36:03;21.00;32.80
10300;DHT22;5195;48.562;9.192;2023-03-21T11:38:32;21.30;31.90
10300;DHT22;5195;48.562;9.192;2023-03-21T11:40:57;21.00;32.60
10300;DHT22;5195;48.562;9.192;2023-03-21T11:43:30;21.00;32.60
10300;DHT22;5195;48.562;9.192;2023-03-21T11:45:59;20.80;32.80
10300;DHT22;5195;48.562;9.192;2023-03-21T11:48:24;20.80;32.90
10300;DHT22;5195;48.562;9.192;2023-03-21T11:50:52;20.80;32.90
10300;DHT22;5195;48.562;9.192;2023-03-21T11:53:31;21.10;32.80
10300;DHT22;5195;48.562;9.192;2023-03-21T11:58:39;21.00;33.10
10300;DHT22;5195;48.562;9.192;2023-03-21T12:01:18;21.20;32.40
10300;DHT22;5195;48.562;9.192;2023-03-21T12:03:57;21.40;32.70
10300;DHT22;5195;48.562;9.192;2023-03-21T12:06:37;21.40;32.70
10300;DHT22;5195;48.562;9.192;2023-03-21T12:09:05;21.50;31.90
10300;DHT22;5195;48.562;9.192;2023-03-21T12:17:05;21.40;33.10
10300;DHT22;5195;48.562;9.192;2023-03-21T12:24:49;21.50;32.60
10300;DHT22;5195;48.562;9.192;2023-03-21T12:27:17;21.30;32.90
10300;DHT22;5195;48.562;9.192;2023-03-21T12:35:50;21.00;33.60
10300;DHT22;5195;48.562;9.192;2023-03-21T12:38:33;21.00;33.50
10300;DHT22;5195;48.562;9.192;2023-03-21T12:41:18;20.70;33.70
10300;DHT22;5195;48.562;9.192;2023-03-21T12:43:42;20.80;33.70
10300;DHT22;5195;48.562;9.192;2023-03-21T12:46:28;20.80;33.60
10300;DHT22;5195;48.562;9.192;2023-03-21T12:48:59;20.80;33.80
10300;DHT22;5195;48.562;9.192;2023-03-21T12:51:33;20.70;33.60
10300;DHT22;5195;48.562;9.192;2023-03-21T12:53:58;20.80;34.10
10300;DHT22;5195;48.562;9.192;2023-03-21T12:56:31;20.60;34.00
10300;DHT22;5195;48.562;9.192;2023-03-21T13:02:13;21.00;33.40
10300;DHT22;5195;48.562;9.192;2023-03-21T13:04:41;21.20;33.50
10300;DHT22;5195;48.562;9.192;2023-03-21T13:07:06;21.10;33.40
10300;DHT22;5195;48.562;9.192;2023-03-21T13:09:33;20.80;33.50
10300;DHT22;5195;48.562;9.192;2023-03-21T13:11:56;20.90;34.80
10300;DHT22;5195;48.562;9.192;2023-03-21T13:14:29;20.90;34.30
10300;DHT22;5195;48.562;9.192;2023-03-21T13:16:55;21.00;32.90
10300;DHT22;5195;48.562;9.192;2023-03-21T13:19:40;21.30;33.40
10300;DHT22;5195;48.562;9.192;2023-03-21T13:22:25;21.30;33.20
10300;DHT22;5195;48.562;9.192;2023-03-21T13:24:54;21.10;33.30
10300;DHT22;5195;48.562;9.192;2023-03-21T13:27:36;21.00;34.20
10300;DHT22;5195;48.562;9.192;2023-03-21T13:32:41;21.50;32.30
10300;DHT22;5195;48.562;9.192;2023-03-21T13:38:01;21.30;32.30
10300;DHT22;5195;48.562;9.192;2023-03-21T13:40:26;21.40;31.50
10300;DHT22;5195;48.562;9.192;2023-03-21T13:42:54;21.60;31.60
10300;DHT22;5195;48.562;9.192;2023-03-21T13:47:57;21.60;31.00
10300;DHT22;5195;48.562;9.192;2023-03-21T13:50:29;21.50;30.90
10300;DHT22;5195;48.562;9.192;2023-03-21T13:55:43;21.30;31.20
10300;DHT22;5195;48.562;9.192;2023-03-21T14:01:09;21.10;31.70
10300;DHT22;5195;48.562;9.192;2023-03-21T14:03:26;20.90;32.20
10300;DHT22;5195;48.562;9.192;2023-03-21T14:05:52;20.80;32.50
10300;DHT22;5195;48.562;9.192;2023-03-21T14:08:18;20.60;32.30
10300;DHT22;5195;48.562;9.192;2023-03-21T14:10:47;20.80;31.30
10300;DHT22;5195;48.562;9.192;2023-03-21T14:13:15;21.20;30.80
10300;DHT22;5195;48.562;9.192;2023-03-21T14:15:48;21.10;31.10
10300;DHT22;5195;48.562;9.192;2023-03-21T14:18:18;20.90;31.50
10300;DHT22;5195;48.562;9.192;2023-03-21T14:20:41;21.10;31.60
10300;DHT22;5195;48.562;9.192;2023-03-21T14:23:12;21.30;29.90
10300;DHT22;5195;48.562;9.192;2023-03-21T14:25:35;21.20;30.30
10300;DHT22;5195;48.562;9.192;2023-03-21T14:28:00;21.00;30.70
10300;DHT22;5195;48.562;9.192;2023-03-21T14:30:27;20.70;30.40
10300;DHT22;5195;48.562;9.192;2023-03-21T14:32:55;20.80;29.50
10300;DHT22;5195;48.562;9.192;2023-03-21T14:35:21;21.10;29.00
10300;DHT22;5195;48.562;9.192;2023-03-21T14:37:47;21.50;28.80
10300;DHT22;5195;48.562;9.192;2023-03-21T14:40:20;21.50;28.80
10300;DHT22;5195;48.562;9.192;2023-03-21T14:42:45;21.60;29.30
10300;DHT22;5195;48.562;9.192;2023-03-21T14:45:18;21.40;29.40
10300;DHT22;5195;48.562;9.192;2023-03-21T14:47:52;21.40;29.10
10300;DHT22;5195;48.562;9.192;2023-03-21T14:50:09;21.40;29.10
10300;DHT22;5195;48.562;9.192;2023-03-21T14:52:34;21.30;28.80
10300;DHT22;5195;48.562;9.192;2023-03-21T14:55:00;21.00;28.70
10300;DHT22;5195;48.562;9.192;2023-03-21T14:57:28;20.70;28.20
10300;DHT22;5195;48.562;9.192;2023-03-21T14:59:52;20.70;28.20
10300;DHT22;5195;48.562;9.192;2023-03-21T15:04:50;20.50;28.80
10300;DHT22;5195;48.562;9.192;2023-03-21T15:07:26;20.60;28.50
10300;DHT22;5195;48.562;9.192;2023-03-21T15:09:56;20.80;28.70
10300;DHT22;5195;48.562;9.192;2023-03-21T15:12:20;20.80;28.40
10300;DHT22;5195;48.562;9.192;2023-03-21T15:14:46;20.80;28.50
10300;DHT22;5195;48.562;9.192;2023-03-21T15:17:13;20.70;29.20
10300;DHT22;5195;48.562;9.192;2023-03-21T15:19:38;20.50;28.70
10300;DHT22;5195;48.562;9.192;2023-03-21T15:22:19;20.20;28.90
10300;DHT22;5195;48.562;9.192;2023-03-21T15:24:41;20.30;28.70
10300;DHT22;5195;48.562;9.192;2023-03-21T15:27:10;20.60;28.20
10300;DHT22;5195;48.562;9.192;2023-03-21T15:29:33;20.70;28.80
10300;DHT22;5195;48.562;9.192;2023-03-21T15:31:58;20.70;28.40
10300;DHT22;5195;48.562;9.192;2023-03-21T15:34:26;20.60;28.00
10300;DHT22;5195;48.562;9.192;2023-03-21T15:36:53;20.60;28.00
10300;DHT22;5195;48.562;9.192;2023-03-21T15:39:16;20.40;28.50
10300;DHT22;5195;48.562;9.192;2023-03-21T15:41:41;20.40;28.70
10300;DHT22;5195;48.562;9.192;2023-03-21T15:46:40;20.80;28.60
10300;DHT22;5195;48.562;9.192;2023-03-21T15:51:37;20.60;28.50
10300;DHT22;5195;48.562;9.192;2023-03-21T15:54:04;20.70;28.20
10300;DHT22;5195;48.562;9.192;2023-03-21T15:56:33;20.80;28.60
10300;DHT22;5195;48.562;9.192;2023-03-21T15:58:58;20.80;28.60
10300;DHT22;5195;48.562;9.192;2023-03-21T16:01:24;20.90;29.00
10300;DHT22;5195;48.562;9.192;2023-03-21T16:03:57;20.90;28.70
10300;DHT22;5195;48.562;9.192;2023-03-21T16:06:28;20.60;28.90
10300;DHT22;5195;48.562;9.192;2023-03-21T16:09:09;20.60;28.90
10300;DHT22;5195;48.562;9.192;2023-03-21T16:11:38;20.10;29.50
10300;DHT22;5195;48.562;9.192;2023-03-21T16:14:04;20.10;29.50
10300;DHT22;5195;48.562;9.192;2023-03-21T16:16:30;20.00;29.60
10300;DHT22;5195;48.562;9.192;2023-03-21T16:18:56;20.00;30.10
10300;DHT22;5195;48.562;9.192;2023-03-21T16:21:21;20.10;29.90
10300;DHT22;5195;48.562;9.192;2023-03-21T16:23:47;19.90;30.00
10300;DHT22;5195;48.562;9.192;2023-03-21T16:26:13;19.90;30.00
10300;DHT22;5195;48.562;9.192;2023-03-21T16:28:39;19.40;30.50
10300;DHT22;5195;48.562;9.192;2023-03-21T16:31:04;19.40;30.50
10300;DHT22;5195;48.562;9.192;2023-03-21T16:33:30;19.20;31.00
10300;DHT22;5195;48.562;9.192;2023-03-21T16:35:55;19.00;31.30
10300;DHT22;5195;48.562;9.192;2023-03-21T16:38:21;19.10;30.90
10300;DHT22;5195;48.562;9.192;2023-03-21T16:40:46;19.10;30.90
10300;DHT22;5195;48.562;9.192;2023-03-21T16:43:12;18.90;31.00
10300;DHT22;5195;48.562;9.192;2023-03-21T16:45:38;19.00;30.40
10300;DHT22;5195;48.562;9.192;2023-03-21T16:48:05;19.00;30.10
10300;DHT22;5195;48.562;9.192;2023-03-21T16:50:32;19.00;30.10
10300;DHT22;5195;48.562;9.192;2023-03-21T16:52:58;19.30;30.20
10300;DHT22;5195;48.562;9.192;2023-03-21T16:55:23;19.40;30.10
10300;DHT22;5195;48.562;9.192;2023-03-21T16:57:49;19.60;30.00
10300;DHT22;5195;48.562;9.192;2023-03-21T17:00:15;19.20;30.20
10300;DHT22;5195;48.562;9.192;2023-03-21T17:02:41;19.20;30.20